Time;durP1;ratioP1;P1;durP2;ratioP2;P2;SDS_P1;SDS_P2;PMS_P1;PMS_P2;Temp;Humidity;BMP_temperature;BMP_pressure;BME280_temperature;BME280_humidity;BME280_pressure;Samples;Min_cycle;Max_cycle;Signal;HPM_P1;HPM_P2
2022/11/12 00:00:40;;;;;;;225.33;109.63;;;;;;;;;;5028673;28;20176;-34
2022/11/12 00:03:06;;;;;;;217.57;106.37;;;;;;;;;;5031531;28;21082;-34
2022/11/12 00:05:32;;;;;;;212.93;105.30;;;;;;;;;;5033772;28;20498;-34
2022/11/12 00:07:59;;;;;;;207.77;106.03;;;;;;;;;;5031456;28;20887;-34
2022/11/12 00:10:25;;;;;;;238.77;112.07;;;;;;;;;;5032566;28;20308;-34
2022/11/12 00:12:52;;;;;;;257.30;116.07;;;;;;;;;;5036302;28;20190;-34
2022/11/12 00:15:18;;;;;;;288.47;123.10;;;;;;;;;;5034023;28;20554;-34
2022/11/12 00:17:44;;;;;;;244.50;114.73;;;;;;;;;;5032221;28;20265;-34
2022/11/12 00:20:11;;;;;;;246.37;118.53;;;;;;;;;;5032485;28;20176;-34
2022/11/12 00:22:37;;;;;;;268.37;116.57;;;;;;;;;;5034492;28;20182;-34
2022/11/12 00:25:03;;;;;;;235.77;111.50;;;;;;;;;;5035814;28;20387;-34
2022/11/12 00:27:31;;;;;;;242.93;111.57;;;;;;;;;;5035220;28;20588;-34
2022/11/12 00:29:57;;;;;;;236.73;109.30;;;;;;;;;;5031315;28;20417;-35
2022/11/12 00:32:23;;;;;;;225.03;108.07;;;;;;;;;;5033025;28;20183;-34
2022/11/12 00:34:49;;;;;;;268.73;115.00;;;;;;;;;;5030899;28;21472;-34
2022/11/12 00:37:15;;;;;;;252.07;111.27;;;;;;;;;;5034174;28;20313;-34
2022/11/12 00:39:41;;;;;;;237.87;110.70;;;;;;;;;;5033656;28;20247;-34
2022/11/12 00:42:08;;;;;;;231.40;112.30;;;;;;;;;;5031873;28;21429;-34
2022/11/12 00:44:34;;;;;;;300.47;122.13;;;;;;;;;;5035424;28;20171;-35
2022/11/12 00:47:00;;;;;;;261.63;115.43;;;;;;;;;;5034818;28;20257;-35
2022/11/12 00:49:26;;;;;;;256.13;111.83;;;;;;;;;;5031144;28;20174;-36
2022/11/12 00:51:52;;;;;;;236.43;109.03;;;;;;;;;;5030122;28;20190;-35
2022/11/12 00:54:19;;;;;;;220.03;106.07;;;;;;;;;;5028695;28;20227;-35
2022/11/12 00:56:48;;;;;;;273.07;115.90;;;;;;;;;;5031428;28;20163;-35
2022/11/12 00:59:14;;;;;;;220.00;103.10;;;;;;;;;;5033969;28;20878;-35
2022/11/12 01:01:41;;;;;;;193.40;96.37;;;;;;;;;;5030238;28;20308;-35
2022/11/12 01:04:07;;;;;;;260.53;108.53;;;;;;;;;;5029073;28;20187;-35
2022/11/12 01:06:33;;;;;;;213.27;99.37;;;;;;;;;;5033089;28;20198;-34
2022/11/12 01:08:59;;;;;;;250.77;107.40;;;;;;;;;;5032626;28;20260;-35
2022/11/12 01:11:27;;;;;;;327.83;124.30;;;;;;;;;;5029100;28;20626;-35
2022/11/12 01:14:09;;;;;;;297.50;116.77;;;;;;;;;;5029567;28;20394;-35
2022/11/12 01:16:37;;;;;;;294.13;115.50;;;;;;;;;;5033643;28;20167;-35
2022/11/12 01:19:04;;;;;;;281.00;113.63;;;;;;;;;;5034302;28;21455;-35
2022/11/12 01:21:31;;;;;;;221.07;101.77;;;;;;;;;;5030793;28;20591;-35
2022/11/12 01:23:58;;;;;;;225.30;101.13;;;;;;;;;;5033566;28;20433;-35
2022/11/12 01:26:27;;;;;;;224.03;101.13;;;;;;;;;;5030104;28;20868;-35
2022/11/12 01:28:53;;;;;;;294.47;114.80;;;;;;;;;;5031682;28;20436;-33
2022/11/12 01:31:29;;;;;;;272.57;108.93;;;;;;;;;;5034141;28;20948;-33
2022/11/12 01:33:57;;;;;;;203.83;96.20;;;;;;;;;;5033129;28;20742;-33
2022/11/12 01:36:23;;;;;;;219.27;99.53;;;;;;;;;;5002250;28;20584;-33
2022/11/12 01:38:51;;;;;;;247.57;104.17;;;;;;;;;;5032251;28;20191;-41
2022/11/12 01:41:25;;;;;;;228.67;99.33;;;;;;;;;;5030928;28;20418;-41
2022/11/12 01:44:10;;;;;;;235.43;99.80;;;;;;;;;;5030518;28;20190;-41
2022/11/12 01:46:48;;;;;;;252.20;101.40;;;;;;;;;;5027764;28;20422;-42
2022/11/12 01:49:18;;;;;;;221.23;94.20;;;;;;;;;;5030622;28;20417;-41
2022/11/12 01:51:47;;;;;;;187.30;90.37;;;;;;;;;;5029947;28;20658;-40
2022/11/12 01:54:16;;;;;;;231.37;97.33;;;;;;;;;;5027920;28;20201;-42
2022/11/12 01:56:42;;;;;;;228.80;98.83;;;;;;;;;;5032492;28;20666;-42
2022/11/12 01:59:11;;;;;;;224.67;95.77;;;;;;;;;;5026122;28;20425;-42
2022/11/12 02:01:38;;;;;;;172.37;82.63;;;;;;;;;;5027371;28;20600;-42
2022/11/12 02:04:04;;;;;;;209.87;90.37;;;;;;;;;;5029863;28;20432;-40
2022/11/12 02:06:31;;;;;;;233.13;94.83;;;;;;;;;;5029341;28;20440;-42
2022/11/12 02:08:57;;;;;;;194.30;88.70;;;;;;;;;;5025640;28;21136;-40
2022/11/12 02:11:23;;;;;;;230.80;97.20;;;;;;;;;;5026686;28;20435;-42
2022/11/12 02:13:56;;;;;;;196.57;89.07;;;;;;;;;;5028019;28;20457;-42
2022/11/12 02:16:22;;;;;;;173.13;84.93;;;;;;;;;;5029473;28;21397;-42
2022/11/12 02:18:48;;;;;;;166.33;82.13;;;;;;;;;;5026262;28;21020;-41
2022/11/12 02:21:18;;;;;;;194.83;88.00;;;;;;;;;;5024739;28;21033;-41
2022/11/12 02:23:44;;;;;;;222.90;90.70;;;;;;;;;;5025658;28;20514;-41
2022/11/12 02:26:10;;;;;;;179.53;84.03;;;;;;;;;;5025979;28;20471;-42
2022/11/12 02:28:36;;;;;;;192.60;85.23;;;;;;;;;;5025856;28;20823;-42
2022/11/12 02:31:02;;;;;;;174.27;81.27;;;;;;;;;;5024423;28;20785;-41
2022/11/12 02:33:28;;;;;;;180.23;82.87;;;;;;;;;;5026891;28;20845;-42
2022/11/12 02:35:54;;;;;;;221.83;90.53;;;;;;;;;;5027251;28;20861;-42
2022/11/12 02:38:20;;;;;;;180.90;84.17;;;;;;;;;;5025532;28;20476;-42
2022/11/12 02:40:46;;;;;;;224.63;90.87;;;;;;;;;;5027724;28;20672;-40
2022/11/12 02:43:12;;;;;;;196.90;86.07;;;;;;;;;;5024533;28;20989;-42
2022/11/12 02:45:38;;;;;;;185.47;82.47;;;;;;;;;;5026909;28;20728;-41
2022/11/12 02:48:04;;;;;;;157.90;76.47;;;;;;;;;;5022844;28;20884;-41
2022/11/12 02:50:30;;;;;;;189.93;81.47;;;;;;;;;;5020572;28;20439;-42
2022/11/12 02:52:56;;;;;;;160.90;77.70;;;;;;;;;;5022495;28;20426;-42
2022/11/12 02:55:22;;;;;;;160.43;76.33;;;;;;;;;;5025981;28;20433;-42
2022/11/12 02:57:48;;;;;;;159.60;76.23;;;;;;;;;;5022771;28;20425;-41
2022/11/12 03:00:15;;;;;;;166.23;79.00;;;;;;;;;;5021585;28;21637;-42
2022/11/12 03:02:57;;;;;;;192.27;82.63;;;;;;;;;;5021925;28;20483;-42
2022/11/12 03:05:24;;;;;;;166.13;78.17;;;;;;;;;;5020984;28;20421;-42
2022/11/12 03:07:50;;;;;;;195.10;88.90;;;;;;;;;;5022010;28;21044;-42
2022/11/12 03:10:16;;;;;;;191.50;84.67;;;;;;;;;;5027666;28;20176;-41
2022/11/12 03:12:42;;;;;;;191.57;83.83;;;;;;;;;;5023312;28;20434;-41
2022/11/12 03:15:08;;;;;;;197.73;91.80;;;;;;;;;;5023354;28;20673;-40
2022/11/12 03:17:34;;;;;;;208.63;94.07;;;;;;;;;;5022562;28;21576;-42
2022/11/12 03:20:00;;;;;;;184.07;88.60;;;;;;;;;;5031309;28;20735;-42
2022/11/12 03:22:26;;;;;;;212.30;95.57;;;;;;;;;;5024588;28;21994;-42
2022/11/12 03:24:52;;;;;;;216.23;96.80;;;;;;;;;;5026718;28;20442;-41
2022/11/12 03:27:18;;;;;;;185.87;87.50;;;;;;;;;;5030851;28;20504;-42
2022/11/12 03:29:44;;;;;;;199.30;90.80;;;;;;;;;;5023057;28;20874;-42
2022/11/12 03:32:11;;;;;;;194.87;89.13;;;;;;;;;;5024505;28;20807;-41
2022/11/12 03:34:37;;;;;;;213.17;88.60;;;;;;;;;;5025045;28;20445;-42
2022/11/12 03:37:03;;;;;;;204.90;87.40;;;;;;;;;;5025061;28;20496;-42
2022/11/12 03:39:29;;;;;;;172.77;81.37;;;;;;;;;;5023907;28;20989;-41
2022/11/12 03:41:55;;;;;;;173.20;80.43;;;;;;;;;;5027529;28;20439;-42
2022/11/12 03:44:21;;;;;;;171.93;79.57;;;;;;;;;;5023665;28;20443;-40
2022/11/12 03:46:47;;;;;;;157.43;76.27;;;;;;;;;;5028212;28;21042;-42
2022/11/12 03:49:13;;;;;;;179.07;77.93;;;;;;;;;;5025924;28;21804;-41
2022/11/12 03:51:39;;;;;;;165.80;75.77;;;;;;;;;;5030821;28;20964;-42
2022/11/12 03:54:05;;;;;;;174.30;76.80;;;;;;;;;;5029826;28;20893;-41
2022/11/12 03:56:31;;;;;;;154.93;71.63;;;;;;;;;;5029324;28;20463;-40
2022/11/12 03:58:57;;;;;;;158.43;70.47;;;;;;;;;;5027155;28;20421;-42
2022/11/12 04:01:23;;;;;;;158.67;71.53;;;;;;;;;;5031095;28;20523;-42
2022/11/12 04:03:49;;;;;;;160.60;69.80;;;;;;;;;;5030108;28;20989;-42
2022/11/12 04:09:17;;;;;;;154.47;70.23;;;;;;;;;;4967949;28;20431;-40
2022/11/12 04:11:43;;;;;;;175.73;79.53;;;;;;;;;;5013727;28;20809;-40
2022/11/12 04:14:09;;;;;;;148.57;69.70;;;;;;;;;;5030913;28;20452;-42
2022/11/12 04:22:06;;;;;;;160.80;78.20;;;;;;;;;;5026376;28;21344;-41
2022/11/12 04:27:21;;;;;;;180.27;87.80;;;;;;;;;;5028446;28;20432;-41
2022/11/12 04:32:33;;;;;;;190.60;92.43;;;;;;;;;;5024551;28;20474;-40
2022/11/12 04:35:00;;;;;;;161.33;83.33;;;;;;;;;;5025932;28;20778;-42
2022/11/12 04:37:27;;;;;;;179.50;88.43;;;;;;;;;;5024759;28;20700;-42
2022/11/12 04:39:54;;;;;;;155.97;81.70;;;;;;;;;;5024887;28;21003;-41
2022/11/12 04:45:09;;;;;;;181.13;90.10;;;;;;;;;;5023145;28;20441;-41
2022/11/12 04:47:36;;;;;;;168.70;87.30;;;;;;;;;;5026975;28;20441;-42
2022/11/12 04:50:05;;;;;;;154.63;81.43;;;;;;;;;;5028997;28;20515;-41
2022/11/12 04:52:31;;;;;;;155.73;81.33;;;;;;;;;;5031023;28;20742;-41
2022/11/12 04:54:57;;;;;;;167.77;83.97;;;;;;;;;;5028549;28;21268;-42
2022/11/12 04:57:23;;;;;;;147.43;75.30;;;;;;;;;;5025794;28;20428;-41
2022/11/12 04:59:49;;;;;;;137.47;69.37;;;;;;;;;;5028905;28;20429;-42
2022/11/12 05:02:16;;;;;;;135.73;67.27;;;;;;;;;;5028035;28;20434;-41
2022/11/12 05:04:43;;;;;;;126.80;63.03;;;;;;;;;;5026184;28;21160;-41
2022/11/12 05:07:09;;;;;;;127.90;61.43;;;;;;;;;;5028355;28;20722;-42
2022/11/12 05:09:35;;;;;;;134.27;65.37;;;;;;;;;;5030397;28;20452;-42
2022/11/12 05:12:02;;;;;;;105.83;56.00;;;;;;;;;;5028737;28;20746;-41
2022/11/12 05:14:28;;;;;;;116.57;59.40;;;;;;;;;;5023636;28;20577;-41
2022/11/12 05:16:54;;;;;;;111.50;57.63;;;;;;;;;;5027425;28;21121;-41
2022/11/12 05:19:20;;;;;;;112.77;56.97;;;;;;;;;;5029789;28;20517;-42
2022/11/12 05:22:04;;;;;;;106.07;55.70;;;;;;;;;;5026912;28;21275;-40
2022/11/12 05:24:40;;;;;;;118.70;57.00;;;;;;;;;;5027652;28;21960;-41
2022/11/12 05:27:08;;;;;;;107.53;53.03;;;;;;;;;;5031066;28;20975;-42
2022/11/12 05:29:34;;;;;;;106.27;54.27;;;;;;;;;;5032364;28;21176;-41
2022/11/12 05:32:01;;;;;;;110.40;55.20;;;;;;;;;;5026586;28;20452;-41
2022/11/12 05:34:27;;;;;;;109.53;54.03;;;;;;;;;;5024992;28;21044;-41
2022/11/12 05:36:53;;;;;;;94.83;49.37;;;;;;;;;;5030352;28;20426;-41
2022/11/12 05:39:19;;;;;;;98.17;50.77;;;;;;;;;;5030831;28;20514;-44
2022/11/12 05:41:45;;;;;;;92.57;48.40;;;;;;;;;;5026674;28;20430;-43
2022/11/12 05:44:11;;;;;;;87.60;46.50;;;;;;;;;;5029344;28;21649;-44
2022/11/12 05:46:37;;;;;;;86.73;43.83;;;;;;;;;;5029507;28;20843;-44
2022/11/12 05:49:03;;;;;;;92.70;44.73;;;;;;;;;;5023812;28;20510;-43
2022/11/12 05:51:29;;;;;;;83.70;41.83;;;;;;;;;;5025184;28;20866;-44
2022/11/12 05:53:55;;;;;;;81.47;42.30;;;;;;;;;;5030032;28;20460;-43
2022/11/12 05:56:22;;;;;;;80.83;41.07;;;;;;;;;;5033303;28;20427;-43
2022/11/12 05:58:48;;;;;;;77.83;39.13;;;;;;;;;;5030955;28;20907;-44
2022/11/12 06:01:14;;;;;;;69.53;37.03;;;;;;;;;;5026191;28;20796;-44
2022/11/12 06:03:40;;;;;;;77.07;37.63;;;;;;;;;;5028160;28;20432;-44
2022/11/12 06:06:06;;;;;;;70.70;36.13;;;;;;;;;;5028589;28;20421;-44
2022/11/12 06:08:32;;;;;;;66.83;34.57;;;;;;;;;;5023853;28;20805;-44
2022/11/12 06:10:58;;;;;;;59.87;31.67;;;;;;;;;;5024634;28;21159;-44
2022/11/12 06:13:25;;;;;;;59.67;32.23;;;;;;;;;;5029447;28;20533;-42
2022/11/12 06:15:54;;;;;;;57.37;30.20;;;;;;;;;;5023614;28;20641;-44
2022/11/12 06:18:21;;;;;;;65.13;33.43;;;;;;;;;;5025539;28;20425;-44
2022/11/12 06:21:18;;;;;;;65.13;32.87;;;;;;;;;;5025054;28;20732;-44
2022/11/12 06:23:33;;;;;;;61.63;31.80;;;;;;;;;;5012154;28;20847;-44
2022/11/12 06:25:59;;;;;;;63.43;30.63;;;;;;;;;;5021579;28;20449;-43
2022/11/12 06:28:26;;;;;;;56.23;29.37;;;;;;;;;;5025960;28;20433;-44
2022/11/12 06:30:52;;;;;;;57.67;30.83;;;;;;;;;;4996517;28;21384;-42
2022/11/12 06:33:18;;;;;;;52.43;28.53;;;;;;;;;;5023411;28;21429;-41
2022/11/12 06:35:44;;;;;;;55.03;29.03;;;;;;;;;;5022900;28;21091;-42
2022/11/12 06:38:10;;;;;;;61.27;31.80;;;;;;;;;;5026700;28;20180;-42
2022/11/12 06:40:36;;;;;;;57.73;30.10;;;;;;;;;;5023496;28;20428;-41
2022/11/12 06:43:02;;;;;;;62.13;31.30;;;;;;;;;;5020957;28;20171;-42
2022/11/12 06:45:28;;;;;;;59.87;32.77;;;;;;;;;;5025899;28;21028;-42
2022/11/12 06:47:58;;;;;;;54.83;31.30;;;;;;;;;;5028959;28;20761;-42
2022/11/12 06:50:24;;;;;;;59.23;32.90;;;;;;;;;;5023443;28;20482;-42
2022/11/12 06:52:50;;;;;;;62.60;34.03;;;;;;;;;;5023298;28;21108;-41
2022/11/12 06:55:16;;;;;;;60.40;34.83;;;;;;;;;;5024387;28;20931;-42
2022/11/12 06:57:42;;;;;;;59.23;34.67;;;;;;;;;;5021625;28;20430;-42
2022/11/12 07:00:10;;;;;;;68.50;37.43;;;;;;;;;;5021793;28;20422;-42
2022/11/12 07:02:37;;;;;;;70.20;39.33;;;;;;;;;;5021540;28;20800;-41
2022/11/12 07:05:03;;;;;;;65.63;38.43;;;;;;;;;;5027442;28;20433;-40
2022/11/12 07:07:29;;;;;;;79.00;42.70;;;;;;;;;;5024236;28;20498;-41
2022/11/12 07:09:55;;;;;;;71.37;40.93;;;;;;;;;;5028397;28;20285;-43
2022/11/12 07:12:21;;;;;;;76.50;44.43;;;;;;;;;;5022504;28;20202;-43
2022/11/12 07:14:47;;;;;;;77.97;45.03;;;;;;;;;;5019198;28;20488;-44
2022/11/12 07:17:13;;;;;;;83.70;46.10;;;;;;;;;;5025438;28;21063;-43
2022/11/12 07:19:39;;;;;;;84.70;48.00;;;;;;;;;;5024694;28;20172;-44
2022/11/12 07:22:05;;;;;;;76.47;45.93;;;;;;;;;;5021394;28;20172;-45
2022/11/12 07:24:31;;;;;;;84.87;49.37;;;;;;;;;;5023373;28;20231;-45
2022/11/12 07:26:57;;;;;;;91.00;50.80;;;;;;;;;;5025782;28;20179;-44
2022/11/12 07:29:26;;;;;;;80.80;45.70;;;;;;;;;;5029501;28;20596;-44
2022/11/12 07:31:52;;;;;;;77.43;45.57;;;;;;;;;;5012025;28;20880;-43
2022/11/12 07:34:18;;;;;;;74.00;44.77;;;;;;;;;;5028503;28;20213;-44
2022/11/12 07:36:44;;;;;;;74.37;42.80;;;;;;;;;;5029014;28;20234;-42
2022/11/12 07:39:12;;;;;;;74.50;42.43;;;;;;;;;;5027467;28;20254;-44
2022/11/12 07:41:38;;;;;;;64.17;39.90;;;;;;;;;;5026011;28;20171;-44
2022/11/12 07:44:04;;;;;;;68.67;42.93;;;;;;;;;;5028713;28;20179;-42
2022/11/12 07:46:30;;;;;;;66.13;39.77;;;;;;;;;;5030270;28;20176;-43
2022/11/12 07:48:56;;;;;;;57.57;36.27;;;;;;;;;;5026439;28;20508;-43
2022/11/12 07:51:22;;;;;;;61.90;37.97;;;;;;;;;;5026096;28;20493;-44
2022/11/12 07:53:49;;;;;;;58.87;36.60;;;;;;;;;;5028297;28;20261;-44
2022/11/12 07:56:17;;;;;;;59.23;38.07;;;;;;;;;;5031705;28;20160;-42
2022/11/12 07:58:44;;;;;;;64.03;38.37;;;;;;;;;;5027439;28;20168;-44
2022/11/12 08:01:22;;;;;;;60.40;38.87;;;;;;;;;;5027151;28;20391;-44
2022/11/12 08:03:48;;;;;;;65.63;37.53;;;;;;;;;;5026523;28;20180;-43
2022/11/12 08:06:14;;;;;;;57.40;35.37;;;;;;;;;;5026675;28;20188;-43
2022/11/12 08:08:41;;;;;;;50.83;33.57;;;;;;;;;;5025123;28;20775;-43
2022/11/12 08:11:07;;;;;;;58.27;36.27;;;;;;;;;;5025759;28;20366;-43
2022/11/12 08:13:33;;;;;;;54.60;35.07;;;;;;;;;;5031245;28;20398;-44
2022/11/12 08:15:59;;;;;;;59.30;35.77;;;;;;;;;;5025982;28;20456;-43
2022/11/12 08:18:25;;;;;;;61.93;38.13;;;;;;;;;;5026884;28;20627;-43
2022/11/12 08:20:51;;;;;;;57.63;36.00;;;;;;;;;;5026542;28;20310;-43
2022/11/12 08:23:17;;;;;;;46.27;30.37;;;;;;;;;;5028905;28;20573;-44
2022/11/12 08:25:43;;;;;;;53.13;31.50;;;;;;;;;;5027734;28;20187;-43
2022/11/12 08:28:09;;;;;;;46.23;30.63;;;;;;;;;;5027076;28;20203;-42
2022/11/12 08:30:35;;;;;;;48.83;29.63;;;;;;;;;;5031811;28;20175;-41
2022/11/12 08:33:03;;;;;;;47.17;28.40;;;;;;;;;;5032815;28;20168;-42
2022/11/12 08:35:30;;;;;;;43.33;28.77;;;;;;;;;;5029862;28;20208;-44
2022/11/12 08:38:03;;;;;;;43.03;27.50;;;;;;;;;;5032758;28;20176;-45
2022/11/12 08:40:29;;;;;;;44.20;29.00;;;;;;;;;;5032705;28;20459;-44
2022/11/12 08:42:56;;;;;;;41.57;28.03;;;;;;;;;;5028871;28;20660;-44
2022/11/12 08:45:22;;;;;;;42.37;27.40;;;;;;;;;;5029498;28;20179;-45
2022/11/12 08:47:48;;;;;;;41.23;27.80;;;;;;;;;;5032398;28;20186;-45
2022/11/12 08:50:14;;;;;;;45.20;29.83;;;;;;;;;;5032078;28;21715;-42
2022/11/12 08:52:41;;;;;;;45.50;29.07;;;;;;;;;;5026963;28;20681;-42
2022/11/12 08:55:07;;;;;;;45.70;29.57;;;;;;;;;;5030023;28;20204;-42
2022/11/12 08:57:38;;;;;;;43.17;29.10;;;;;;;;;;5031862;28;20207;-43
2022/11/12 09:00:05;;;;;;;45.23;29.13;;;;;;;;;;5032284;28;20168;-44
2022/11/12 09:02:31;;;;;;;45.60;28.17;;;;;;;;;;5031381;28;20292;-43
2022/11/12 09:04:57;;;;;;;46.70;27.67;;;;;;;;;;5030293;28;20844;-44
2022/11/12 09:07:23;;;;;;;42.97;27.93;;;;;;;;;;5031973;28;20651;-43
2022/11/12 09:09:49;;;;;;;42.83;27.60;;;;;;;;;;5032634;28;20176;-43
2022/11/12 09:12:18;;;;;;;46.40;28.50;;;;;;;;;;5029746;28;20501;-44
2022/11/12 09:14:44;;;;;;;42.30;25.87;;;;;;;;;;5028629;28;20202;-43
2022/11/12 09:17:11;;;;;;;39.57;26.60;;;;;;;;;;5028786;28;20172;-43
2022/11/12 09:19:37;;;;;;;40.67;24.20;;;;;;;;;;5034810;28;20178;-43
2022/11/12 09:22:03;;;;;;;37.23;23.13;;;;;;;;;;5034998;28;20922;-44
2022/11/12 09:24:29;;;;;;;37.90;23.77;;;;;;;;;;5031526;28;20243;-43
2022/11/12 09:26:55;;;;;;;38.83;24.00;;;;;;;;;;5029499;28;20183;-44
2022/11/12 09:29:21;;;;;;;37.73;23.80;;;;;;;;;;5035383;28;20798;-43
2022/11/12 09:31:47;;;;;;;36.60;24.10;;;;;;;;;;5032862;28;20191;-44
2022/11/12 09:34:14;;;;;;;37.03;23.93;;;;;;;;;;5032724;28;20228;-43
2022/11/12 09:36:40;;;;;;;34.07;22.10;;;;;;;;;;5029810;28;20584;-44
2022/11/12 09:39:06;;;;;;;33.67;21.77;;;;;;;;;;5031224;28;20207;-43
2022/11/12 09:41:34;;;;;;;35.20;21.00;;;;;;;;;;5028071;28;20180;-44
2022/11/12 09:44:02;;;;;;;34.10;21.97;;;;;;;;;;5030541;28;21095;-43
2022/11/12 09:46:31;;;;;;;34.80;22.33;;;;;;;;;;5028158;28;20826;-44
2022/11/12 09:49:06;;;;;;;36.33;23.13;;;;;;;;;;5011021;28;20179;-44
2022/11/12 09:51:34;;;;;;;32.63;22.53;;;;;;;;;;5032472;28;20186;-43
2022/11/12 09:54:12;;;;;;;37.83;22.77;;;;;;;;;;5030125;28;20580;-44
2022/11/12 09:56:39;;;;;;;32.90;22.00;;;;;;;;;;5029711;28;20293;-44
2022/11/12 09:59:09;;;;;;;32.20;21.50;;;;;;;;;;5030001;28;20346;-44
2022/11/12 10:01:47;;;;;;;34.70;22.07;;;;;;;;;;5030322;28;20160;-44
2022/11/12 10:04:32;;;;;;;36.03;22.57;;;;;;;;;;5028569;28;20179;-44
2022/11/12 10:07:08;;;;;;;32.67;22.23;;;;;;;;;;5031364;28;20240;-43
2022/11/12 10:09:40;;;;;;;33.90;23.40;;;;;;;;;;5028599;28;20681;-44
2022/11/12 10:12:30;;;;;;;33.13;22.53;;;;;;;;;;5027662;28;20648;-44
2022/11/12 10:16:41;;;;;;;41.33;24.80;;;;;;;;;;5030588;28;20531;-44
2022/11/12 10:17:59;;;;;;;38.70;25.40;;;;;;;;;;5025605;28;20188;-44
2022/11/12 10:20:27;;;;;;;34.53;24.33;;;;;;;;;;5030190;28;20980;-45
2022/11/12 10:23:02;;;;;;;35.33;25.53;;;;;;;;;;5029031;28;20211;-44
2022/11/12 10:25:29;;;;;;;41.17;25.90;;;;;;;;;;5024478;28;20237;-44
2022/11/12 10:27:55;;;;;;;36.37;25.43;;;;;;;;;;5024786;28;20317;-44
2022/11/12 10:30:22;;;;;;;35.37;25.33;;;;;;;;;;5030760;28;20194;-44
2022/11/12 10:32:49;;;;;;;36.47;25.43;;;;;;;;;;5028521;28;20557;-44
2022/11/12 10:35:17;;;;;;;34.60;24.20;;;;;;;;;;5026904;28;20497;-44
2022/11/12 10:37:52;;;;;;;30.87;24.20;;;;;;;;;;5031209;28;20398;-44
2022/11/12 10:40:21;;;;;;;28.43;21.57;;;;;;;;;;5017265;28;20186;-44
2022/11/12 10:42:58;;;;;;;26.97;21.20;;;;;;;;;;5025394;28;20203;-44
2022/11/12 10:45:24;;;;;;;27.43;20.30;;;;;;;;;;5031783;28;20183;-44
2022/11/12 10:47:51;;;;;;;24.10;20.57;;;;;;;;;;5032123;28;20179;-44
2022/11/12 10:50:26;;;;;;;28.67;21.80;;;;;;;;;;5026434;28;20167;-45
2022/11/12 10:52:56;;;;;;;28.53;21.43;;;;;;;;;;5010479;28;20195;-44
2022/11/12 10:55:24;;;;;;;26.27;20.90;;;;;;;;;;5030604;28;20310;-44
2022/11/12 10:58:18;;;;;;;27.20;21.33;;;;;;;;;;5026206;28;20171;-44
2022/11/12 11:01:10;;;;;;;26.27;20.73;;;;;;;;;;5023984;28;20187;-44
2022/11/12 11:03:44;;;;;;;29.80;22.20;;;;;;;;;;5029530;28;20730;-44
2022/11/12 11:06:13;;;;;;;28.43;21.63;;;;;;;;;;5028213;28;20175;-44
2022/11/12 11:08:41;;;;;;;27.67;21.50;;;;;;;;;;5023000;28;21219;-44
2022/11/12 11:11:16;;;;;;;27.37;20.47;;;;;;;;;;5026089;28;20198;-44
2022/11/12 11:13:43;;;;;;;29.27;20.47;;;;;;;;;;5029705;28;20595;-44
2022/11/12 11:16:19;;;;;;;26.70;21.00;;;;;;;;;;5028162;28;20595;-43
2022/11/12 11:18:48;;;;;;;31.63;21.73;;;;;;;;;;5027115;28;20912;-43
2022/11/12 11:21:14;;;;;;;28.97;22.47;;;;;;;;;;5026477;28;20216;-44
2022/11/12 11:23:44;;;;;;;30.23;22.00;;;;;;;;;;5029981;28;20304;-44
2022/11/12 11:26:16;;;;;;;33.57;22.13;;;;;;;;;;5024067;28;20226;-44
2022/11/12 11:28:47;;;;;;;29.70;21.80;;;;;;;;;;5026979;28;20184;-44
2022/11/12 11:31:13;;;;;;;30.13;21.40;;;;;;;;;;5010851;28;20175;-44
2022/11/12 11:33:44;;;;;;;32.97;23.53;;;;;;;;;;5029301;28;20180;-43
2022/11/12 11:36:19;;;;;;;34.83;23.30;;;;;;;;;;5026209;28;20168;-43
2022/11/12 11:38:58;;;;;;;30.03;22.90;;;;;;;;;;5028168;28;20190;-43
2022/11/12 11:41:36;;;;;;;31.57;23.67;;;;;;;;;;5031311;28;20682;-45
2022/11/12 11:44:21;;;;;;;33.37;23.73;;;;;;;;;;5029378;28;20171;-43
2022/11/12 11:46:57;;;;;;;33.07;24.70;;;;;;;;;;5028351;28;20314;-43
2022/11/12 11:49:31;;;;;;;33.10;23.73;;;;;;;;;;5024764;28;20186;-42
2022/11/12 11:51:57;;;;;;;36.07;24.43;;;;;;;;;;5028581;28;20173;-43
2022/11/12 11:54:26;;;;;;;31.20;22.90;;;;;;;;;;5029802;28;20930;-42
2022/11/12 11:56:54;;;;;;;36.60;24.50;;;;;;;;;;5031844;28;20513;-43
2022/11/12 11:59:27;;;;;;;32.23;23.93;;;;;;;;;;5026851;28;20778;-43
2022/11/12 12:02:19;;;;;;;30.60;23.10;;;;;;;;;;5029361;28;20668;-44
2022/11/12 12:04:50;;;;;;;31.13;22.37;;;;;;;;;;5000538;28;20263;-44
2022/11/12 12:07:19;;;;;;;34.20;22.93;;;;;;;;;;5029170;28;20179;-44
2022/11/12 12:09:56;;;;;;;34.17;24.03;;;;;;;;;;5029941;28;20175;-43
2022/11/12 12:12:25;;;;;;;33.63;24.07;;;;;;;;;;5029267;28;20436;-43
2022/11/12 12:14:54;;;;;;;29.47;22.10;;;;;;;;;;5033982;28;20304;-43
2022/11/12 12:17:23;;;;;;;31.67;22.83;;;;;;;;;;5031752;28;20491;-43
2022/11/12 12:20:05;;;;;;;33.97;24.17;;;;;;;;;;5031307;28;20601;-43
2022/11/12 12:22:34;;;;;;;30.80;22.53;;;;;;;;;;5033663;28;20175;-43
2022/11/12 12:25:10;;;;;;;32.40;23.33;;;;;;;;;;5035637;28;20702;-43
2022/11/12 12:27:38;;;;;;;34.10;24.17;;;;;;;;;;5030643;28;20175;-44
2022/11/12 12:30:04;;;;;;;31.90;23.90;;;;;;;;;;5031913;28;20702;-44
2022/11/12 12:32:30;;;;;;;33.40;24.50;;;;;;;;;;5030109;28;20179;-44
2022/11/12 12:35:15;;;;;;;33.53;24.40;;;;;;;;;;5030965;28;20200;-43
2022/11/12 12:37:46;;;;;;;31.30;23.40;;;;;;;;;;5035281;28;20789;-43
2022/11/12 12:40:21;;;;;;;31.67;24.53;;;;;;;;;;5029644;28;20185;-43
2022/11/12 12:42:53;;;;;;;31.97;23.03;;;;;;;;;;5027794;28;20179;-43
2022/11/12 12:45:34;;;;;;;31.80;23.90;;;;;;;;;;5028703;28;20254;-44
2022/11/12 12:48:01;;;;;;;32.43;23.83;;;;;;;;;;5032613;28;20497;-43
2022/11/12 12:50:27;;;;;;;34.93;24.90;;;;;;;;;;5027398;28;20180;-42
2022/11/12 12:53:00;;;;;;;32.93;24.60;;;;;;;;;;5029042;28;20458;-43
2022/11/12 12:55:34;;;;;;;33.03;25.23;;;;;;;;;;5031373;28;20195;-44
2022/11/12 12:58:00;;;;;;;34.37;25.10;;;;;;;;;;5032465;28;20648;-43
2022/11/12 13:00:29;;;;;;;33.80;26.27;;;;;;;;;;5029525;28;20294;-44
2022/11/12 13:02:55;;;;;;;32.47;24.67;;;;;;;;;;5029795;28;20168;-44
2022/11/12 13:05:25;;;;;;;33.47;25.57;;;;;;;;;;5032750;28;20324;-44
2022/11/12 13:07:52;;;;;;;36.37;25.40;;;;;;;;;;5031935;28;20176;-44
2022/11/12 13:10:44;;;;;;;36.30;26.40;;;;;;;;;;5028347;28;20615;-43
2022/11/12 13:13:16;;;;;;;34.20;25.97;;;;;;;;;;5010076;28;20895;-44
2022/11/12 13:15:44;;;;;;;34.07;26.13;;;;;;;;;;5028311;28;20750;-44
2022/11/12 13:18:12;;;;;;;31.67;24.70;;;;;;;;;;5029043;28;20693;-43
2022/11/12 13:20:39;;;;;;;35.90;27.13;;;;;;;;;;5027703;28;20561;-43
2022/11/12 13:23:08;;;;;;;36.53;26.57;;;;;;;;;;5029438;28;20171;-44
2022/11/12 13:25:35;;;;;;;38.63;27.63;;;;;;;;;;5030363;28;21001;-43
2022/11/12 13:28:05;;;;;;;34.60;26.47;;;;;;;;;;5032948;28;20334;-43
2022/11/12 13:30:31;;;;;;;37.17;27.73;;;;;;;;;;5026335;28;20353;-44
2022/11/12 13:32:58;;;;;;;36.53;27.23;;;;;;;;;;5028218;28;20180;-45
2022/11/12 13:35:24;;;;;;;37.40;28.63;;;;;;;;;;5030877;28;20222;-45
2022/11/12 13:38:02;;;;;;;36.70;27.53;;;;;;;;;;5027308;28;20207;-44
2022/11/12 13:40:43;;;;;;;39.70;27.37;;;;;;;;;;5029155;28;20835;-43
2022/11/12 13:43:09;;;;;;;37.47;28.90;;;;;;;;;;5031609;28;20764;-44
2022/11/12 13:45:41;;;;;;;38.13;27.70;;;;;;;;;;5028423;28;20187;-44
2022/11/12 13:48:33;;;;;;;36.90;27.40;;;;;;;;;;5028045;28;20206;-44
2022/11/12 13:51:06;;;;;;;37.27;27.90;;;;;;;;;;5027637;28;20206;-44
2022/11/12 13:53:32;;;;;;;36.67;28.27;;;;;;;;;;5028881;28;20183;-45
2022/11/12 13:55:59;;;;;;;35.27;26.83;;;;;;;;;;5029193;28;20364;-45
2022/11/12 13:58:29;;;;;;;40.80;28.80;;;;;;;;;;5031016;28;21021;-45
2022/11/12 14:01:00;;;;;;;34.07;25.50;;;;;;;;;;5032945;28;20762;-45
2022/11/12 14:03:28;;;;;;;39.53;28.07;;;;;;;;;;5028499;28;20273;-45
2022/11/12 14:05:54;;;;;;;34.67;26.10;;;;;;;;;;5028581;28;20176;-45
2022/11/12 14:08:24;;;;;;;35.80;26.83;;;;;;;;;;5025978;28;20623;-45
2022/11/12 14:11:05;;;;;;;38.30;28.90;;;;;;;;;;5029209;28;20183;-45
2022/11/12 14:13:50;;;;;;;36.03;27.93;;;;;;;;;;5029706;28;20580;-45
2022/11/12 14:16:35;;;;;;;39.43;28.37;;;;;;;;;;5027184;28;20191;-44
2022/11/12 14:19:20;;;;;;;37.60;28.07;;;;;;;;;;5027308;28;20594;-45
2022/11/12 14:22:21;;;;;;;40.00;28.97;;;;;;;;;;5030119;28;20699;-45
2022/11/12 14:24:54;;;;;;;37.30;28.00;;;;;;;;;;4952703;28;20228;-44
2022/11/12 14:27:22;;;;;;;39.43;28.83;;;;;;;;;;5010213;28;20253;-44
2022/11/12 14:29:48;;;;;;;37.93;28.77;;;;;;;;;;5023691;28;20167;-45
2022/11/12 14:32:15;;;;;;;44.23;31.23;;;;;;;;;;5024617;28;21504;-45
2022/11/12 14:34:41;;;;;;;38.03;28.60;;;;;;;;;;5027657;28;20200;-44
2022/11/12 14:37:20;;;;;;;36.63;27.77;;;;;;;;;;5026110;28;20200;-45